createdAt,value
2018-12-21T00:00:38.435Z,11.63
2018-12-21T00:03:05.244Z,12.67
2018-12-21T00:05:32.213Z,8.47
2018-12-21T00:07:58.800Z,9.03
2018-12-21T00:10:25.282Z,7.73
2018-12-21T00:12:51.789Z,14.20
2018-12-21T00:15:18.325Z,11.07
2018-12-21T00:17:45.133Z,9.23
2018-12-21T00:20:11.599Z,7.33
2018-12-21T00:22:38.437Z,16.10
2018-12-21T00:25:05.523Z,8.63
2018-12-21T00:27:31.990Z,6.93
2018-12-21T00:29:58.743Z,6.33
2018-12-21T00:32:31.127Z,8.13
2018-12-21T00:35:03.495Z,6.93
2018-12-21T00:37:36.083Z,9.43
2018-12-21T00:40:10.471Z,9.03
2018-12-21T00:42:43.182Z,6.40
2018-12-21T00:45:11.990Z,6.23
2018-12-21T00:47:38.575Z,11.17
2018-12-21T00:50:07.347Z,8.87
2018-12-21T00:52:33.859Z,8.23
2018-12-21T00:55:01.169Z,7.30
2018-12-21T00:57:27.648Z,6.30
2018-12-21T00:59:54.105Z,10.97
2018-12-21T01:02:20.768Z,12.90
2018-12-21T01:04:47.698Z,9.03
2018-12-21T01:07:14.201Z,8.57
2018-12-21T01:09:40.715Z,9.37
2018-12-21T01:12:09.094Z,9.23
2018-12-21T01:14:36.297Z,11.37
2018-12-21T01:17:02.918Z,8.30
2018-12-21T01:19:29.405Z,9.57
2018-12-21T01:21:55.893Z,8.03
2018-12-21T01:24:22.332Z,8.23
2018-12-21T01:26:48.799Z,9.13
2018-12-21T01:29:15.315Z,12.50
2018-12-21T01:31:41.909Z,8.87
2018-12-21T01:34:08.732Z,11.80
2018-12-21T01:36:35.234Z,9.23
2018-12-21T01:39:01.769Z,6.87
2018-12-21T01:41:28.602Z,7.00
2018-12-21T01:43:55.101Z,7.13
2018-12-21T01:46:21.574Z,6.23
2018-12-21T01:48:48.028Z,7.93
2018-12-21T01:51:14.732Z,7.13
2018-12-21T01:53:41.565Z,7.63
2018-12-21T01:56:08.039Z,14.60
2018-12-21T01:58:34.829Z,5.13
2018-12-21T02:01:01.737Z,7.83
2018-12-21T02:03:28.585Z,9.43
2018-12-21T02:05:55.073Z,8.73
2018-12-21T02:08:21.516Z,6.97
2018-12-21T02:10:48.037Z,8.37
2018-12-21T02:13:14.475Z,6.20
2018-12-21T02:15:40.975Z,9.57
2018-12-21T02:18:07.458Z,10.07
2018-12-21T02:20:33.950Z,11.27
2018-12-21T02:23:00.430Z,8.50
2018-12-21T02:25:27.217Z,4.83
2018-12-21T02:27:54.083Z,7.80
2018-12-21T02:30:20.638Z,3.83
2018-12-21T02:32:47.126Z,6.47
2018-12-21T02:35:13.561Z,11.30
2018-12-21T02:37:40.356Z,7.40
2018-12-21T02:40:07.233Z,10.17
2018-12-21T02:42:35.585Z,6.77
2018-12-21T02:45:02.563Z,5.53
2018-12-21T02:47:29.742Z,5.73
2018-12-21T02:49:56.193Z,4.63
2018-12-21T02:52:22.722Z,4.53
2018-12-21T02:54:49.583Z,6.70
2018-12-21T02:57:16.357Z,4.83
2018-12-21T02:59:42.879Z,8.03
2018-12-21T03:02:09.302Z,7.10
2018-12-21T03:04:35.741Z,11.37
2018-12-21T03:07:02.260Z,9.00
2018-12-21T03:09:28.726Z,6.73
2018-12-21T03:11:55.172Z,7.07
2018-12-21T03:14:21.678Z,7.80
2018-12-21T03:16:48.144Z,6.70
2018-12-21T03:19:14.629Z,7.47
2018-12-21T03:21:41.453Z,7.30
2018-12-21T03:24:07.942Z,7.27
2018-12-21T03:26:34.473Z,5.43
2018-12-21T03:29:01.077Z,5.37
2018-12-21T03:31:27.551Z,8.40
2018-12-21T03:33:54.497Z,4.23
2018-12-21T03:36:21.674Z,5.77
2018-12-21T03:38:48.497Z,11.10
2018-12-21T03:41:15.299Z,6.03
2018-12-21T03:43:41.753Z,6.00
2018-12-21T03:46:08.230Z,6.53
2018-12-21T03:48:35.146Z,3.13
2018-12-21T03:51:01.702Z,5.90
2018-12-21T03:53:28.172Z,6.10
2018-12-21T03:55:54.750Z,6.40
2018-12-21T03:58:21.558Z,7.43
2018-12-21T04:00:48.120Z,9.27
2018-12-21T04:03:14.626Z,7.00
2018-12-21T04:05:41.154Z,6.20
2018-12-21T04:08:07.590Z,8.87
2018-12-21T04:10:34.068Z,6.53
2018-12-21T04:13:00.899Z,7.97
2018-12-21T04:15:27.827Z,9.20
2018-12-21T04:17:54.579Z,11.67
2018-12-21T04:20:21.384Z,7.23
2018-12-21T04:22:47.876Z,5.60
2018-12-21T04:25:14.306Z,6.53
2018-12-21T04:27:40.804Z,9.93
2018-12-21T04:30:08.042Z,7.60
2018-12-21T04:32:34.493Z,6.20
2018-12-21T04:35:00.904Z,4.67
2018-12-21T04:37:27.446Z,5.03
2018-12-21T04:39:53.918Z,9.73
2018-12-21T04:42:20.724Z,5.53
2018-12-21T04:44:47.146Z,6.83
2018-12-21T04:47:13.711Z,6.13
2018-12-21T04:49:40.260Z,6.37
2018-12-21T04:52:06.805Z,8.67
2018-12-21T04:54:33.238Z,3.00
2018-12-21T04:56:59.654Z,7.83
2018-12-21T04:59:26.115Z,4.73
2018-12-21T05:01:52.561Z,7.73
2018-12-21T05:04:20.388Z,4.63
2018-12-21T05:06:47.480Z,4.87
2018-12-21T05:09:15.198Z,9.27
2018-12-21T05:11:41.907Z,6.33
2018-12-21T05:14:08.390Z,5.23
2018-12-21T05:16:34.870Z,5.90
2018-12-21T05:19:01.295Z,4.90
2018-12-21T05:21:27.763Z,7.53
2018-12-21T05:23:54.292Z,7.00
2018-12-21T05:26:20.923Z,8.13
2018-12-21T05:28:47.515Z,6.90
2018-12-21T05:31:14.091Z,9.43
2018-12-21T05:33:40.704Z,6.10
2018-12-21T05:36:07.258Z,5.90
2018-12-21T05:38:33.792Z,9.20
2018-12-21T05:41:00.295Z,7.40
2018-12-21T05:43:26.740Z,9.83
2018-12-21T05:45:53.230Z,6.70
2018-12-21T05:48:19.708Z,6.37
2018-12-21T05:50:46.175Z,6.07
2018-12-21T05:53:13.893Z,7.33
2018-12-21T05:55:40.682Z,7.23
2018-12-21T05:58:07.214Z,7.80
2018-12-21T06:00:33.673Z,9.37
2018-12-21T06:03:00.265Z,10.73
2018-12-21T06:05:26.787Z,8.10
2018-12-21T06:07:53.263Z,10.67
2018-12-21T06:10:20.149Z,9.63
2018-12-21T06:12:46.732Z,10.37
2018-12-21T06:15:13.431Z,9.77
2018-12-21T06:17:40.352Z,10.27
2018-12-21T06:20:06.904Z,7.47
2018-12-21T06:22:33.404Z,5.53
2018-12-21T06:25:00.249Z,6.07
2018-12-21T06:27:26.815Z,6.73
2018-12-21T06:29:53.334Z,4.63
2018-12-21T06:32:19.827Z,5.27
2018-12-21T06:34:46.257Z,5.37
2018-12-21T06:37:13.707Z,6.43
2018-12-21T06:39:40.161Z,5.47
2018-12-21T06:42:06.626Z,6.37
2018-12-21T06:44:33.090Z,3.63
2018-12-21T06:46:59.973Z,3.50
2018-12-21T06:49:26.859Z,5.13
2018-12-21T06:51:53.335Z,3.17
2018-12-21T06:54:20.152Z,2.50
2018-12-21T06:56:46.589Z,4.03
2018-12-21T06:59:13.101Z,2.97
2018-12-21T07:01:39.616Z,2.40
2018-12-21T07:04:06.050Z,5.13
2018-12-21T07:06:32.888Z,2.40
2018-12-21T07:08:59.437Z,2.37
2018-12-21T07:11:25.919Z,3.33
2018-12-21T07:13:52.554Z,5.57
2018-12-21T07:16:19.161Z,3.87
2018-12-21T07:18:45.959Z,2.63
2018-12-21T07:21:13.755Z,4.23
2018-12-21T07:23:40.355Z,3.00
2018-12-21T07:26:07.085Z,4.03
2018-12-21T07:28:33.563Z,3.10
2018-12-21T07:31:00.433Z,3.23
2018-12-21T07:33:27.272Z,3.07
2018-12-21T07:35:54.488Z,2.50
2018-12-21T07:38:21.018Z,3.63
2018-12-21T07:40:47.484Z,3.27
2018-12-21T07:43:14.177Z,3.20
2018-12-21T07:45:41.013Z,3.43
2018-12-21T07:48:07.834Z,4.27
2018-12-21T07:50:34.411Z,4.10
2018-12-21T07:53:00.881Z,4.27
2018-12-21T07:55:27.471Z,4.83
2018-12-21T07:57:53.992Z,3.87
2018-12-21T08:00:20.642Z,3.50
2018-12-21T08:02:47.546Z,3.50
2018-12-21T08:05:14.954Z,2.17
2018-12-21T08:07:42.421Z,3.57
2018-12-21T08:10:11.545Z,3.27
2018-12-21T08:12:38.027Z,3.40
2018-12-21T08:15:04.906Z,4.60
2018-12-21T08:17:31.388Z,3.00
2018-12-21T08:19:57.903Z,3.90
2018-12-21T08:22:24.462Z,4.70
2018-12-21T08:24:51.908Z,4.70
2018-12-21T08:27:18.405Z,3.97
2018-12-21T08:29:44.924Z,2.80
2018-12-21T08:32:11.716Z,3.67
2018-12-21T08:34:38.254Z,3.77
2018-12-21T08:37:04.848Z,3.13
2018-12-21T08:39:31.527Z,3.53
2018-12-21T08:41:58.139Z,4.03
2018-12-21T08:44:24.908Z,5.57
2018-12-21T08:46:51.533Z,3.20
2018-12-21T08:49:18.466Z,5.07
2018-12-21T08:51:45.035Z,2.83
2018-12-21T08:54:11.460Z,3.63
2018-12-21T08:56:38.052Z,3.20
2018-12-21T08:59:04.595Z,5.03
2018-12-21T09:01:31.044Z,4.97
2018-12-21T09:03:57.512Z,3.07
2018-12-21T09:06:25.278Z,2.73
2018-12-21T09:08:51.782Z,3.23
2018-12-21T09:11:18.273Z,2.90
2018-12-21T09:13:44.736Z,3.40
2018-12-21T09:16:11.533Z,2.70
2018-12-21T09:18:38.393Z,2.77
2018-12-21T09:21:04.881Z,3.50
2018-12-21T09:23:31.343Z,2.30
2018-12-21T09:25:58.152Z,2.43
2018-12-21T09:28:24.991Z,2.40
2018-12-21T09:30:52.040Z,2.53
2018-12-21T09:33:18.557Z,2.40
2018-12-21T09:35:46.577Z,3.60
2018-12-21T09:38:14.296Z,1.93
2018-12-21T09:40:44.639Z,1.80
2018-12-21T09:43:11.093Z,2.33
2018-12-21T09:45:37.584Z,2.53
2018-12-21T09:48:04.231Z,3.07
2018-12-21T09:50:30.772Z,2.40
2018-12-21T09:52:57.778Z,2.57
2018-12-21T09:55:24.476Z,3.83
2018-12-21T09:57:51.050Z,3.07
2018-12-21T10:00:17.580Z,2.77
2018-12-21T10:02:44.241Z,3.50
2018-12-21T10:05:11.487Z,3.60
2018-12-21T10:07:38.920Z,5.10
2018-12-21T10:10:06.556Z,3.17
2018-12-21T10:12:33.060Z,4.13
2018-12-21T10:14:59.645Z,3.70
2018-12-21T10:17:26.221Z,5.50
2018-12-21T10:19:53.008Z,5.00
2018-12-21T10:22:19.550Z,4.87
2018-12-21T10:24:46.118Z,4.63
2018-12-21T10:27:12.710Z,5.00
2018-12-21T10:29:39.490Z,6.77
2018-12-21T10:32:07.471Z,6.27
2018-12-21T10:34:33.986Z,5.40
2018-12-21T10:37:00.567Z,6.17
2018-12-21T10:39:27.190Z,7.57
2018-12-21T10:41:53.653Z,5.77
2018-12-21T10:44:20.218Z,6.10
2018-12-21T10:46:46.722Z,6.30
2018-12-21T10:49:13.172Z,7.73
2018-12-21T10:51:39.647Z,6.40
2018-12-21T10:54:06.141Z,7.93
2018-12-21T10:56:32.555Z,7.87
2018-12-21T10:58:59.183Z,8.50
2018-12-21T11:01:25.685Z,10.80
2018-12-21T11:03:52.595Z,17.13
2018-12-21T11:06:19.021Z,15.50
2018-12-21T11:08:45.576Z,21.67
2018-12-21T11:11:12.362Z,20.20
2018-12-21T11:13:38.917Z,22.37
2018-12-21T11:16:05.348Z,22.73
2018-12-21T11:18:31.896Z,20.27
2018-12-21T11:20:58.447Z,19.13
2018-12-21T11:23:25.102Z,14.97
2018-12-21T11:25:51.731Z,13.50
2018-12-21T11:28:25.279Z,5.17
2018-12-21T11:30:46.871Z,5.73
2018-12-21T11:33:13.399Z,12.30
2018-12-21T11:35:40.274Z,7.30
2018-12-21T11:38:06.767Z,6.77
2018-12-21T11:40:33.649Z,6.93
2018-12-21T11:43:00.466Z,4.07
2018-12-21T11:45:27.027Z,3.73
2018-12-21T11:47:53.826Z,3.27
2018-12-21T11:50:20.467Z,2.97
2018-12-21T11:52:47.047Z,2.43
2018-12-21T11:55:13.833Z,2.80
2018-12-21T11:57:40.407Z,2.00
2018-12-21T12:00:08.403Z,3.10
2018-12-21T12:02:34.867Z,1.80
2018-12-21T12:05:03.141Z,1.83
2018-12-21T12:07:30.260Z,2.23
2018-12-21T12:09:56.838Z,1.87
2018-12-21T12:12:23.410Z,2.10
2018-12-21T12:14:50.217Z,1.80
2018-12-21T12:17:18.287Z,2.00
2018-12-21T12:19:45.033Z,2.87
2018-12-21T12:22:11.469Z,2.27
2018-12-21T12:24:38.628Z,1.83
2018-12-21T12:27:05.901Z,1.33
2018-12-21T12:29:32.401Z,1.20
2018-12-21T12:31:58.970Z,1.50
2018-12-21T12:34:25.674Z,1.37
2018-12-21T12:36:52.171Z,1.80
2018-12-21T12:39:18.895Z,1.60
2018-12-21T12:41:46.390Z,1.57
2018-12-21T12:44:12.864Z,1.60
2018-12-21T12:46:39.823Z,1.93
2018-12-21T12:49:06.244Z,2.13
2018-12-21T12:51:32.737Z,1.87
2018-12-21T12:53:59.268Z,1.70
2018-12-21T12:56:25.842Z,1.97
2018-12-21T12:58:52.441Z,1.23
2018-12-21T13:01:18.909Z,1.77
2018-12-21T13:03:45.469Z,1.37
2018-12-21T13:06:12.121Z,2.03
2018-12-21T13:08:39.043Z,2.03
2018-12-21T13:11:05.631Z,2.13
2018-12-21T13:13:32.146Z,2.20
2018-12-21T13:15:58.756Z,1.33
2018-12-21T13:18:25.239Z,1.63
2018-12-21T13:20:51.976Z,1.90
2018-12-21T13:23:18.807Z,2.90
2018-12-21T13:25:45.286Z,1.93
2018-12-21T13:28:11.798Z,2.30
2018-12-21T13:30:38.203Z,3.17
2018-12-21T13:33:04.692Z,2.33
2018-12-21T13:35:31.506Z,2.50
2018-12-21T13:37:58.454Z,1.50
2018-12-21T13:40:25.474Z,2.20
2018-12-21T13:42:52.324Z,2.13
2018-12-21T13:45:18.851Z,3.10
2018-12-21T13:47:45.766Z,3.87
2018-12-21T13:50:12.326Z,2.80
2018-12-21T13:52:38.783Z,2.03
2018-12-21T13:55:05.869Z,2.90
2018-12-21T13:57:32.499Z,3.50
2018-12-21T13:59:59.074Z,2.83
2018-12-21T14:02:25.692Z,2.50
2018-12-21T14:04:52.249Z,5.73
2018-12-21T14:07:18.791Z,6.47
2018-12-21T14:09:45.287Z,2.37
2018-12-21T14:12:12.189Z,7.13
2018-12-21T14:14:38.604Z,7.30
2018-12-21T14:17:05.146Z,5.47
2018-12-21T14:19:32.025Z,6.20
2018-12-21T14:21:58.879Z,6.13
2018-12-21T14:24:25.858Z,6.60
2018-12-21T14:26:52.374Z,9.97
2018-12-21T14:29:19.983Z,7.73
2018-12-21T14:31:46.909Z,9.50
2018-12-21T14:34:13.917Z,9.60
2018-12-21T14:36:40.963Z,5.80
2018-12-21T14:39:07.551Z,7.97
2018-12-21T14:41:34.145Z,10.37
2018-12-21T14:44:00.789Z,7.03
2018-12-21T14:46:27.586Z,13.83
2018-12-21T14:48:54.079Z,12.97
2018-12-21T14:51:21.731Z,12.80
2018-12-21T14:53:48.773Z,9.07
2018-12-21T14:56:15.359Z,10.87
2018-12-21T14:58:42.908Z,9.97
2018-12-21T15:01:09.426Z,9.17
2018-12-21T15:03:36.519Z,13.53
2018-12-21T15:06:03.032Z,14.27
2018-12-21T15:08:31.236Z,12.07
2018-12-21T15:10:57.950Z,14.60
2018-12-21T15:13:24.431Z,11.00
2018-12-21T15:15:50.955Z,16.17
2018-12-21T15:18:18.512Z,11.67
2018-12-21T15:20:45.027Z,14.53
2018-12-21T15:23:12.447Z,10.60
2018-12-21T15:25:46.011Z,10.70
2018-12-21T15:28:08.351Z,13.47
2018-12-21T15:30:37.088Z,17.17
2018-12-21T15:33:03.934Z,16.03
2018-12-21T15:35:31.075Z,20.10
2018-12-21T15:37:57.715Z,18.37
2018-12-21T15:40:24.265Z,17.93
2018-12-21T15:42:51.237Z,16.53
2018-12-21T15:45:19.146Z,16.90
2018-12-21T15:47:45.683Z,20.40
2018-12-21T15:50:12.217Z,14.07
2018-12-21T15:52:40.142Z,16.00
2018-12-21T15:55:07.039Z,19.43
2018-12-21T15:57:33.929Z,21.20
2018-12-21T16:00:04.870Z,20.97
2018-12-21T16:02:32.981Z,23.83
2018-12-21T16:04:59.671Z,20.60
2018-12-21T16:07:27.846Z,15.20
2018-12-21T16:09:54.304Z,27.57
2018-12-21T16:12:20.770Z,23.57
2018-12-21T16:14:47.521Z,17.93
2018-12-21T16:17:13.962Z,18.10
2018-12-21T16:19:41.116Z,24.80
2018-12-21T16:22:07.421Z,17.03
2018-12-21T16:24:34.282Z,23.53
2018-12-21T16:27:01.102Z,26.83
2018-12-21T16:29:27.626Z,17.90
2018-12-21T16:31:54.133Z,21.13
2018-12-21T16:34:20.597Z,19.00
2018-12-21T16:36:48.191Z,19.03
2018-12-21T16:39:15.848Z,24.90
2018-12-21T16:41:42.371Z,23.80
2018-12-21T16:44:09.428Z,18.90
2018-12-21T16:46:35.907Z,26.13
2018-12-21T16:49:02.383Z,26.50
2018-12-21T16:51:28.914Z,21.73
2018-12-21T16:53:55.930Z,22.20
2018-12-21T16:56:22.403Z,23.40
2018-12-21T16:58:49.011Z,24.90
2018-12-21T17:01:15.555Z,25.27
2018-12-21T17:03:42.066Z,17.87
2018-12-21T17:06:08.566Z,23.27
2018-12-21T17:08:35.100Z,14.83
2018-12-21T17:11:01.536Z,17.00
2018-12-21T17:13:27.956Z,20.20
2018-12-21T17:15:54.828Z,20.80
2018-12-21T17:18:21.467Z,23.40
2018-12-21T17:20:47.922Z,22.63
2018-12-21T17:23:14.434Z,20.47
2018-12-21T17:25:41.109Z,20.30
2018-12-21T17:28:07.687Z,25.00
2018-12-21T17:30:34.175Z,20.30
2018-12-21T17:33:01.003Z,31.93
2018-12-21T17:35:27.582Z,23.40
2018-12-21T17:37:54.051Z,22.87
2018-12-21T17:40:21.648Z,19.80
2018-12-21T17:42:49.108Z,18.70
2018-12-21T17:45:16.034Z,21.80
2018-12-21T17:47:42.557Z,22.30
2018-12-21T17:50:09.126Z,27.40
2018-12-21T17:52:37.471Z,20.73
2018-12-21T17:55:04.908Z,24.77
2018-12-21T17:57:31.347Z,16.13
2018-12-21T17:59:57.959Z,18.50
2018-12-21T18:02:24.452Z,20.63
2018-12-21T18:04:50.946Z,20.80
2018-12-21T18:07:17.432Z,20.17
2018-12-21T18:09:43.913Z,23.47
2018-12-21T18:12:10.298Z,22.47
2018-12-21T18:14:37.165Z,18.33
2018-12-21T18:17:03.652Z,29.47
2018-12-21T18:19:30.089Z,23.87
2018-12-21T18:21:56.676Z,22.07
2018-12-21T18:24:24.057Z,18.77
2018-12-21T18:26:51.031Z,24.60
2018-12-21T18:29:17.733Z,19.70
2018-12-21T18:31:47.978Z,22.90
2018-12-21T18:34:17.465Z,20.93
2018-12-21T18:36:44.288Z,19.90
2018-12-21T18:39:11.168Z,22.70
2018-12-21T18:41:37.894Z,20.33
2018-12-21T18:44:04.802Z,22.07
2018-12-21T18:46:31.230Z,21.83
2018-12-21T18:48:57.762Z,22.13
2018-12-21T18:51:24.605Z,15.63
2018-12-21T18:53:51.610Z,17.60
2018-12-21T18:56:20.199Z,20.83
2018-12-21T18:58:46.717Z,23.70
2018-12-21T19:01:13.609Z,18.23
2018-12-21T19:03:40.152Z,17.90
2018-12-21T19:06:06.658Z,20.40
2018-12-21T19:08:33.524Z,17.33
2018-12-21T19:10:59.988Z,18.30
2018-12-21T19:13:26.609Z,17.83
2018-12-21T19:15:53.085Z,24.03
2018-12-21T19:18:19.611Z,18.47
2018-12-21T19:20:46.106Z,20.57
2018-12-21T19:23:12.617Z,20.60
2018-12-21T19:25:40.303Z,22.30
2018-12-21T19:28:06.725Z,24.40
2018-12-21T19:30:33.193Z,17.63
2018-12-21T19:32:59.634Z,24.50
2018-12-21T19:35:28.814Z,19.33
2018-12-21T19:37:54.620Z,19.30
2018-12-21T19:40:21.019Z,19.00
2018-12-21T19:42:47.787Z,20.30
2018-12-21T19:45:14.244Z,20.13
2018-12-21T19:47:40.664Z,20.47
2018-12-21T19:50:07.523Z,20.77
2018-12-21T19:52:33.937Z,20.17
2018-12-21T19:55:02.557Z,17.80
2018-12-21T19:57:29.006Z,22.47
2018-12-21T19:59:55.410Z,17.37
2018-12-21T20:02:22.390Z,20.17
2018-12-21T20:04:49.003Z,22.87
2018-12-21T20:07:15.666Z,18.00
2018-12-21T20:09:42.621Z,22.40
2018-12-21T20:12:09.054Z,18.57
2018-12-21T20:14:35.788Z,17.60
2018-12-21T20:17:02.279Z,20.37
2018-12-21T20:19:29.116Z,22.40
2018-12-21T20:21:55.629Z,17.97
2018-12-21T20:24:23.263Z,25.63
2018-12-21T20:26:50.020Z,20.50
2018-12-21T20:29:16.892Z,24.87
2018-12-21T20:31:43.503Z,21.37
2018-12-21T20:34:10.006Z,23.07
2018-12-21T20:36:37.267Z,21.60
2018-12-21T20:39:06.138Z,23.77
2018-12-21T20:41:32.645Z,23.73
2018-12-21T20:43:59.476Z,24.80
2018-12-21T20:46:26.347Z,24.93
2018-12-21T20:48:52.852Z,28.67
2018-12-21T20:51:19.480Z,21.47
2018-12-21T20:53:45.868Z,21.77
2018-12-21T20:56:12.306Z,17.80
2018-12-21T20:58:38.845Z,26.23
2018-12-21T21:01:05.650Z,18.17
2018-12-21T21:03:32.091Z,19.33
2018-12-21T21:05:58.536Z,21.00
2018-12-21T21:08:25.434Z,24.23
2018-12-21T21:10:52.373Z,22.97
2018-12-21T21:13:19.320Z,19.07
2018-12-21T21:15:46.202Z,25.90
2018-12-21T21:18:12.852Z,24.10
2018-12-21T21:20:39.312Z,25.40
2018-12-21T21:23:05.789Z,20.87
2018-12-21T21:25:32.671Z,25.30
2018-12-21T21:27:59.140Z,28.53
2018-12-21T21:30:25.891Z,25.07
2018-12-21T21:32:52.494Z,31.13
2018-12-21T21:35:19.044Z,21.03
2018-12-21T21:37:45.498Z,29.33
2018-12-21T21:40:16.583Z,23.33
2018-12-21T21:42:44.220Z,27.13
2018-12-21T21:45:10.643Z,30.90
2018-12-21T21:47:37.292Z,25.90
2018-12-21T21:50:07.247Z,22.03
2018-12-21T21:52:33.867Z,28.07
2018-12-21T21:55:00.932Z,26.03
2018-12-21T21:57:29.660Z,20.70
2018-12-21T21:59:56.307Z,22.10
2018-12-21T22:02:22.956Z,29.27
2018-12-21T22:04:49.347Z,30.73
2018-12-21T22:07:15.807Z,25.43
2018-12-21T22:09:42.251Z,25.90
2018-12-21T22:12:08.798Z,27.17
2018-12-21T22:14:35.224Z,27.63
2018-12-21T22:17:01.666Z,27.87
2018-12-21T22:19:28.209Z,30.43
2018-12-21T22:21:54.986Z,28.60
2018-12-21T22:24:21.695Z,26.67
2018-12-21T22:26:48.295Z,28.00
2018-12-21T22:29:14.718Z,25.73
2018-12-21T22:31:41.655Z,26.33
2018-12-21T22:34:09.363Z,26.10
2018-12-21T22:36:36.201Z,25.63
2018-12-21T22:39:04.425Z,20.63
2018-12-21T22:41:31.761Z,25.90
2018-12-21T22:43:58.385Z,22.53
2018-12-21T22:46:24.824Z,28.67
2018-12-21T22:48:51.399Z,22.97
2018-12-21T22:51:17.909Z,30.10
2018-12-21T22:53:44.552Z,29.03
2018-12-21T22:56:11.015Z,23.50
2018-12-21T22:58:37.534Z,27.93
2018-12-21T23:01:05.793Z,27.47
2018-12-21T23:03:32.251Z,30.67
2018-12-21T23:05:59.683Z,26.60
2018-12-21T23:08:26.315Z,27.60
2018-12-21T23:10:53.272Z,32.67
2018-12-21T23:13:19.748Z,36.53
2018-12-21T23:15:46.200Z,31.87
2018-12-21T23:18:12.798Z,26.37
2018-12-21T23:20:39.372Z,26.10
2018-12-21T23:23:06.891Z,31.47
2018-12-21T23:25:33.527Z,28.63
2018-12-21T23:28:04.970Z,30.57
2018-12-21T23:30:28.636Z,36.73
2018-12-21T23:32:55.502Z,31.77
2018-12-21T23:35:21.987Z,34.37
2018-12-21T23:37:48.472Z,32.17
2018-12-21T23:40:15.519Z,26.37
2018-12-21T23:42:42.212Z,27.03
2018-12-21T23:45:09.653Z,32.17
2018-12-21T23:47:36.270Z,27.37
2018-12-21T23:50:03.841Z,30.77
2018-12-21T23:52:30.401Z,25.63
2018-12-21T23:54:57.028Z,32.43
2018-12-21T23:57:23.608Z,26.70
2018-12-21T23:59:50.078Z,29.87
